sensor_id;sensor_type;location;lat;lon;timestamp;P1;durP1;ratioP1;P2;durP2;ratioP2
63046;SDS011;62025;39.238;9.126;2022-08-30T00:00:25;4.57;;;2.92;;
63046;SDS011;62025;39.238;9.126;2022-08-30T00:03:10;6.65;;;2.88;;
63046;SDS011;62025;39.238;9.126;2022-08-30T00:05:39;5.78;;;2.97;;
63046;SDS011;62025;39.238;9.126;2022-08-30T00:08:06;5.55;;;2.70;;
63046;SDS011;62025;39.238;9.126;2022-08-30T00:10:33;4.13;;;3.05;;
63046;SDS011;62025;39.238;9.126;2022-08-30T00:12:59;5.90;;;2.90;;
63046;SDS011;62025;39.238;9.126;2022-08-30T00:15:25;5.65;;;3.05;;
63046;SDS011;62025;39.238;9.126;2022-08-30T00:17:53;5.93;;;3.47;;
63046;SDS011;62025;39.238;9.126;2022-08-30T00:20:21;9.35;;;3.42;;
63046;SDS011;62025;39.238;9.126;2022-08-30T00:22:51;7.93;;;3.30;;
63046;SDS011;62025;39.238;9.126;2022-08-30T00:25:17;6.18;;;2.88;;
63046;SDS011;62025;39.238;9.126;2022-08-30T00:27:44;7.33;;;3.23;;
63046;SDS011;62025;39.238;9.126;2022-08-30T00:30:12;6.60;;;3.10;;
63046;SDS011;62025;39.238;9.126;2022-08-30T00:32:39;7.28;;;3.08;;
63046;SDS011;62025;39.238;9.126;2022-08-30T00:35:06;6.47;;;2.92;;
63046;SDS011;62025;39.238;9.126;2022-08-30T00:37:34;2.83;;;2.55;;
63046;SDS011;62025;39.238;9.126;2022-08-30T00:40:01;6.93;;;2.80;;
63046;SDS011;62025;39.238;9.126;2022-08-30T00:42:30;5.40;;;2.70;;
63046;SDS011;62025;39.238;9.126;2022-08-30T00:44:57;5.82;;;2.38;;
63046;SDS011;62025;39.238;9.126;2022-08-30T00:47:24;5.75;;;3.25;;
63046;SDS011;62025;39.238;9.126;2022-08-30T00:49:53;3.15;;;2.40;;
63046;SDS011;62025;39.238;9.126;2022-08-30T00:52:21;9.15;;;3.03;;
63046;SDS011;62025;39.238;9.126;2022-08-30T00:54:48;6.20;;;3.17;;
63046;SDS011;62025;39.238;9.126;2022-08-30T00:57:16;6.00;;;2.97;;
63046;SDS011;62025;39.238;9.126;2022-08-30T00:59:44;4.50;;;2.90;;
63046;SDS011;62025;39.238;9.126;2022-08-30T01:02:14;3.45;;;2.72;;
63046;SDS011;62025;39.238;9.126;2022-08-30T01:04:46;7.60;;;3.33;;
63046;SDS011;62025;39.238;9.126;2022-08-30T01:07:12;5.80;;;2.67;;
63046;SDS011;62025;39.238;9.126;2022-08-30T01:09:40;10.40;;;2.90;;
63046;SDS011;62025;39.238;9.126;2022-08-30T01:12:06;5.85;;;2.88;;
63046;SDS011;62025;39.238;9.126;2022-08-30T01:14:33;8.60;;;3.10;;
63046;SDS011;62025;39.238;9.126;2022-08-30T01:16:59;7.45;;;2.60;;
63046;SDS011;62025;39.238;9.126;2022-08-30T01:19:35;5.15;;;2.85;;
63046;SDS011;62025;39.238;9.126;2022-08-30T01:22:13;4.78;;;2.75;;
63046;SDS011;62025;39.238;9.126;2022-08-30T01:24:58;5.25;;;3.00;;
63046;SDS011;62025;39.238;9.126;2022-08-30T01:27:25;5.45;;;2.90;;
63046;SDS011;62025;39.238;9.126;2022-08-30T01:29:54;5.97;;;3.28;;
63046;SDS011;62025;39.238;9.126;2022-08-30T01:34:53;6.82;;;3.30;;
63046;SDS011;62025;39.238;9.126;2022-08-30T01:37:22;7.97;;;3.67;;
63046;SDS011;62025;39.238;9.126;2022-08-30T01:39:52;8.35;;;4.55;;
63046;SDS011;62025;39.238;9.126;2022-08-30T01:42:19;8.45;;;3.88;;
63046;SDS011;62025;39.238;9.126;2022-08-30T01:44:45;4.88;;;3.55;;
63046;SDS011;62025;39.238;9.126;2022-08-30T01:47:13;6.67;;;3.97;;
63046;SDS011;62025;39.238;9.126;2022-08-30T01:49:40;6.22;;;4.05;;
63046;SDS011;62025;39.238;9.126;2022-08-30T01:52:06;6.70;;;4.53;;
63046;SDS011;62025;39.238;9.126;2022-08-30T01:54:34;9.25;;;4.20;;
63046;SDS011;62025;39.238;9.126;2022-08-30T01:57:02;7.38;;;4.38;;
63046;SDS011;62025;39.238;9.126;2022-08-30T01:59:29;7.68;;;4.63;;
63046;SDS011;62025;39.238;9.126;2022-08-30T02:01:55;7.88;;;4.15;;
63046;SDS011;62025;39.238;9.126;2022-08-30T02:04:22;9.77;;;4.22;;
63046;SDS011;62025;39.238;9.126;2022-08-30T02:06:48;6.28;;;3.95;;
63046;SDS011;62025;39.238;9.126;2022-08-30T02:09:14;9.13;;;4.60;;
63046;SDS011;62025;39.238;9.126;2022-08-30T02:11:40;6.05;;;4.50;;
63046;SDS011;62025;39.238;9.126;2022-08-30T02:14:07;6.35;;;4.10;;
63046;SDS011;62025;39.238;9.126;2022-08-30T02:16:35;7.50;;;4.40;;
63046;SDS011;62025;39.238;9.126;2022-08-30T02:19:01;6.00;;;4.45;;
63046;SDS011;62025;39.238;9.126;2022-08-30T02:21:28;6.47;;;4.03;;
63046;SDS011;62025;39.238;9.126;2022-08-30T02:23:54;7.63;;;4.65;;
63046;SDS011;62025;39.238;9.126;2022-08-30T02:26:20;11.52;;;4.53;;
63046;SDS011;62025;39.238;9.126;2022-08-30T02:28:47;6.03;;;3.95;;
63046;SDS011;62025;39.238;9.126;2022-08-30T02:31:13;8.75;;;4.63;;
63046;SDS011;62025;39.238;9.126;2022-08-30T02:33:39;7.47;;;4.15;;
63046;SDS011;62025;39.238;9.126;2022-08-30T02:36:06;4.47;;;4.07;;
63046;SDS011;62025;39.238;9.126;2022-08-30T02:38:33;5.77;;;4.27;;
63046;SDS011;62025;39.238;9.126;2022-08-30T02:41:00;7.97;;;4.25;;
63046;SDS011;62025;39.238;9.126;2022-08-30T02:43:26;4.55;;;4.10;;
63046;SDS011;62025;39.238;9.126;2022-08-30T02:45:52;6.53;;;4.03;;
63046;SDS011;62025;39.238;9.126;2022-08-30T02:48:18;6.85;;;4.35;;
63046;SDS011;62025;39.238;9.126;2022-08-30T02:50:47;5.53;;;3.95;;
63046;SDS011;62025;39.238;9.126;2022-08-30T02:53:15;6.97;;;4.30;;
63046;SDS011;62025;39.238;9.126;2022-08-30T02:55:43;9.80;;;4.50;;
63046;SDS011;62025;39.238;9.126;2022-08-30T02:58:09;5.78;;;4.25;;
63046;SDS011;62025;39.238;9.126;2022-08-30T03:00:36;8.98;;;4.05;;
63046;SDS011;62025;39.238;9.126;2022-08-30T03:03:03;8.23;;;4.20;;
63046;SDS011;62025;39.238;9.126;2022-08-30T03:05:31;6.25;;;4.15;;
63046;SDS011;62025;39.238;9.126;2022-08-30T03:07:59;6.13;;;3.97;;
63046;SDS011;62025;39.238;9.126;2022-08-30T03:10:26;8.75;;;4.32;;
63046;SDS011;62025;39.238;9.126;2022-08-30T03:12:53;6.13;;;3.53;;
63046;SDS011;62025;39.238;9.126;2022-08-30T03:15:20;6.65;;;3.80;;
63046;SDS011;62025;39.238;9.126;2022-08-30T03:17:50;6.20;;;3.63;;
63046;SDS011;62025;39.238;9.126;2022-08-30T03:20:17;8.65;;;3.83;;
63046;SDS011;62025;39.238;9.126;2022-08-30T03:22:45;8.00;;;3.58;;
63046;SDS011;62025;39.238;9.126;2022-08-30T03:25:11;4.13;;;3.50;;
63046;SDS011;62025;39.238;9.126;2022-08-30T03:27:38;6.30;;;3.60;;
63046;SDS011;62025;39.238;9.126;2022-08-30T03:30:04;10.35;;;3.47;;
63046;SDS011;62025;39.238;9.126;2022-08-30T03:32:32;8.23;;;3.47;;
63046;SDS011;62025;39.238;9.126;2022-08-30T03:34:58;5.90;;;3.80;;
63046;SDS011;62025;39.238;9.126;2022-08-30T03:37:25;5.35;;;3.67;;
63046;SDS011;62025;39.238;9.126;2022-08-30T03:39:52;6.15;;;3.60;;
63046;SDS011;62025;39.238;9.126;2022-08-30T03:42:19;5.88;;;3.58;;
63046;SDS011;62025;39.238;9.126;2022-08-30T03:44:45;6.03;;;3.28;;
63046;SDS011;62025;39.238;9.126;2022-08-30T03:47:12;3.63;;;3.30;;
63046;SDS011;62025;39.238;9.126;2022-08-30T03:49:38;4.57;;;3.45;;
63046;SDS011;62025;39.238;9.126;2022-08-30T03:52:04;5.47;;;3.42;;
63046;SDS011;62025;39.238;9.126;2022-08-30T03:54:30;4.68;;;3.30;;
63046;SDS011;62025;39.238;9.126;2022-08-30T03:56:57;5.53;;;3.40;;
63046;SDS011;62025;39.238;9.126;2022-08-30T03:59:23;8.90;;;3.40;;
63046;SDS011;62025;39.238;9.126;2022-08-30T04:01:49;4.30;;;3.50;;
63046;SDS011;62025;39.238;9.126;2022-08-30T04:04:16;4.35;;;3.50;;
63046;SDS011;62025;39.238;9.126;2022-08-30T04:06:43;6.88;;;3.30;;
63046;SDS011;62025;39.238;9.126;2022-08-30T04:09:09;7.03;;;3.20;;
63046;SDS011;62025;39.238;9.126;2022-08-30T04:11:35;4.82;;;3.35;;
63046;SDS011;62025;39.238;9.126;2022-08-30T04:14:01;5.82;;;3.20;;
63046;SDS011;62025;39.238;9.126;2022-08-30T04:16:28;5.75;;;3.20;;
63046;SDS011;62025;39.238;9.126;2022-08-30T04:18:54;5.90;;;2.90;;
63046;SDS011;62025;39.238;9.126;2022-08-30T04:21:20;6.13;;;2.92;;
63046;SDS011;62025;39.238;9.126;2022-08-30T04:23:46;7.75;;;3.58;;
63046;SDS011;62025;39.238;9.126;2022-08-30T04:26:13;4.30;;;2.88;;
63046;SDS011;62025;39.238;9.126;2022-08-30T04:28:40;4.20;;;2.90;;
63046;SDS011;62025;39.238;9.126;2022-08-30T04:31:09;7.18;;;2.92;;
63046;SDS011;62025;39.238;9.126;2022-08-30T04:33:38;6.05;;;2.95;;
63046;SDS011;62025;39.238;9.126;2022-08-30T04:36:06;5.80;;;3.08;;
63046;SDS011;62025;39.238;9.126;2022-08-30T04:38:35;4.18;;;3.03;;
63046;SDS011;62025;39.238;9.126;2022-08-30T04:41:07;5.05;;;3.10;;
63046;SDS011;62025;39.238;9.126;2022-08-30T04:43:40;6.53;;;3.03;;
63046;SDS011;62025;39.238;9.126;2022-08-30T04:46:11;6.00;;;3.35;;
63046;SDS011;62025;39.238;9.126;2022-08-30T04:48:38;5.85;;;3.30;;
63046;SDS011;62025;39.238;9.126;2022-08-30T04:51:05;6.30;;;3.28;;
63046;SDS011;62025;39.238;9.126;2022-08-30T04:53:35;3.80;;;3.20;;
63046;SDS011;62025;39.238;9.126;2022-08-30T04:56:05;4.85;;;3.20;;
63046;SDS011;62025;39.238;9.126;2022-08-30T04:58:35;4.40;;;3.10;;
63046;SDS011;62025;39.238;9.126;2022-08-30T05:01:01;6.97;;;3.30;;
63046;SDS011;62025;39.238;9.126;2022-08-30T05:03:28;6.60;;;3.45;;
63046;SDS011;62025;39.238;9.126;2022-08-30T05:05:54;10.43;;;3.90;;
63046;SDS011;62025;39.238;9.126;2022-08-30T05:08:20;6.70;;;3.53;;
63046;SDS011;62025;39.238;9.126;2022-08-30T05:10:48;6.50;;;3.65;;
63046;SDS011;62025;39.238;9.126;2022-08-30T05:13:16;4.68;;;3.35;;
63046;SDS011;62025;39.238;9.126;2022-08-30T05:15:45;6.03;;;3.67;;
63046;SDS011;62025;39.238;9.126;2022-08-30T05:18:11;6.07;;;4.30;;
63046;SDS011;62025;39.238;9.126;2022-08-30T05:20:38;11.90;;;4.40;;
63046;SDS011;62025;39.238;9.126;2022-08-30T05:23:04;4.82;;;3.45;;
63046;SDS011;62025;39.238;9.126;2022-08-30T05:25:32;9.10;;;3.53;;
63046;SDS011;62025;39.238;9.126;2022-08-30T05:28:03;6.07;;;3.60;;
63046;SDS011;62025;39.238;9.126;2022-08-30T05:30:31;7.15;;;3.10;;
63046;SDS011;62025;39.238;9.126;2022-08-30T05:33:00;6.07;;;3.42;;
63046;SDS011;62025;39.238;9.126;2022-08-30T05:35:27;3.25;;;2.92;;
63046;SDS011;62025;39.238;9.126;2022-08-30T05:37:53;4.68;;;3.08;;
63046;SDS011;62025;39.238;9.126;2022-08-30T05:40:20;7.53;;;2.80;;
63046;SDS011;62025;39.238;9.126;2022-08-30T05:42:46;3.65;;;2.90;;
63046;SDS011;62025;39.238;9.126;2022-08-30T05:45:13;5.40;;;2.78;;
63046;SDS011;62025;39.238;9.126;2022-08-30T05:47:40;6.93;;;3.40;;
63046;SDS011;62025;39.238;9.126;2022-08-30T05:50:06;6.72;;;2.80;;
63046;SDS011;62025;39.238;9.126;2022-08-30T05:52:34;3.23;;;2.87;;
63046;SDS011;62025;39.238;9.126;2022-08-30T05:55:02;4.28;;;2.50;;
63046;SDS011;62025;39.238;9.126;2022-08-30T05:57:33;3.03;;;2.60;;
63046;SDS011;62025;39.238;9.126;2022-08-30T06:00:01;4.82;;;2.63;;
63046;SDS011;62025;39.238;9.126;2022-08-30T06:02:39;7.57;;;3.10;;
63046;SDS011;62025;39.238;9.126;2022-08-30T06:05:06;6.55;;;3.40;;
63046;SDS011;62025;39.238;9.126;2022-08-30T06:07:34;7.33;;;2.97;;
63046;SDS011;62025;39.238;9.126;2022-08-30T06:10:00;5.22;;;2.75;;
63046;SDS011;62025;39.238;9.126;2022-08-30T06:12:27;4.10;;;2.90;;
63046;SDS011;62025;39.238;9.126;2022-08-30T06:14:53;10.25;;;2.80;;
63046;SDS011;62025;39.238;9.126;2022-08-30T06:17:19;7.50;;;2.70;;
63046;SDS011;62025;39.238;9.126;2022-08-30T06:19:45;7.40;;;2.50;;
63046;SDS011;62025;39.238;9.126;2022-08-30T06:22:11;4.10;;;2.33;;
63046;SDS011;62025;39.238;9.126;2022-08-30T06:24:38;4.63;;;2.47;;
63046;SDS011;62025;39.238;9.126;2022-08-30T06:27:04;6.43;;;2.80;;
63046;SDS011;62025;39.238;9.126;2022-08-30T06:29:30;8.00;;;2.50;;
63046;SDS011;62025;39.238;9.126;2022-08-30T06:31:56;5.43;;;2.28;;
63046;SDS011;62025;39.238;9.126;2022-08-30T06:34:23;4.65;;;2.40;;
63046;SDS011;62025;39.238;9.126;2022-08-30T06:36:49;4.30;;;2.50;;
63046;SDS011;62025;39.238;9.126;2022-08-30T06:39:15;6.78;;;2.45;;
63046;SDS011;62025;39.238;9.126;2022-08-30T06:41:41;5.13;;;2.38;;
63046;SDS011;62025;39.238;9.126;2022-08-30T06:44:36;5.25;;;2.30;;
63046;SDS011;62025;39.238;9.126;2022-08-30T06:47:03;3.80;;;2.42;;
63046;SDS011;62025;39.238;9.126;2022-08-30T06:49:30;4.93;;;2.30;;
63046;SDS011;62025;39.238;9.126;2022-08-30T06:51:56;8.27;;;2.70;;
63046;SDS011;62025;39.238;9.126;2022-08-30T06:54:22;8.55;;;4.28;;
63046;SDS011;62025;39.238;9.126;2022-08-30T06:56:48;7.72;;;3.50;;
63046;SDS011;62025;39.238;9.126;2022-08-30T06:59:15;7.18;;;3.30;;
63046;SDS011;62025;39.238;9.126;2022-08-30T07:01:41;6.93;;;2.45;;
63046;SDS011;62025;39.238;9.126;2022-08-30T07:04:07;3.65;;;2.45;;
63046;SDS011;62025;39.238;9.126;2022-08-30T07:06:33;6.38;;;2.40;;
63046;SDS011;62025;39.238;9.126;2022-08-30T07:08:59;4.25;;;2.30;;
63046;SDS011;62025;39.238;9.126;2022-08-30T07:11:33;3.40;;;2.40;;
63046;SDS011;62025;39.238;9.126;2022-08-30T07:14:01;4.63;;;2.47;;
63046;SDS011;62025;39.238;9.126;2022-08-30T07:16:29;4.93;;;2.17;;
63046;SDS011;62025;39.238;9.126;2022-08-30T07:18:55;5.88;;;2.22;;
63046;SDS011;62025;39.238;9.126;2022-08-30T07:21:27;4.20;;;2.20;;
63046;SDS011;62025;39.238;9.126;2022-08-30T07:23:57;9.15;;;2.47;;
63046;SDS011;62025;39.238;9.126;2022-08-30T07:26:25;4.28;;;2.35;;
63046;SDS011;62025;39.238;9.126;2022-08-30T07:28:55;8.88;;;2.40;;
63046;SDS011;62025;39.238;9.126;2022-08-30T07:31:21;5.28;;;2.20;;
63046;SDS011;62025;39.238;9.126;2022-08-30T07:33:48;5.47;;;2.30;;
63046;SDS011;62025;39.238;9.126;2022-08-30T07:36:15;5.18;;;2.55;;
63046;SDS011;62025;39.238;9.126;2022-08-30T07:38:42;7.07;;;2.63;;
63046;SDS011;62025;39.238;9.126;2022-08-30T07:41:21;5.75;;;2.70;;
63046;SDS011;62025;39.238;9.126;2022-08-30T07:43:51;9.13;;;2.58;;
63046;SDS011;62025;39.238;9.126;2022-08-30T07:46:17;5.15;;;2.67;;
63046;SDS011;62025;39.238;9.126;2022-08-30T07:48:44;7.70;;;2.63;;
63046;SDS011;62025;39.238;9.126;2022-08-30T07:51:12;7.70;;;2.63;;
63046;SDS011;62025;39.238;9.126;2022-08-30T07:53:43;5.38;;;2.53;;
63046;SDS011;62025;39.238;9.126;2022-08-30T07:56:09;4.65;;;2.53;;
63046;SDS011;62025;39.238;9.126;2022-08-30T07:58:36;5.45;;;2.65;;
63046;SDS011;62025;39.238;9.126;2022-08-30T08:01:03;5.95;;;2.47;;
63046;SDS011;62025;39.238;9.126;2022-08-30T08:03:32;7.68;;;2.70;;
63046;SDS011;62025;39.238;9.126;2022-08-30T08:05:59;5.97;;;2.60;;
63046;SDS011;62025;39.238;9.126;2022-08-30T08:08:28;5.53;;;2.70;;
63046;SDS011;62025;39.238;9.126;2022-08-30T08:10:55;9.98;;;2.60;;
63046;SDS011;62025;39.238;9.126;2022-08-30T08:13:22;7.10;;;2.47;;
63046;SDS011;62025;39.238;9.126;2022-08-30T08:15:49;7.25;;;2.80;;
63046;SDS011;62025;39.238;9.126;2022-08-30T08:18:15;3.85;;;2.60;;
63046;SDS011;62025;39.238;9.126;2022-08-30T08:20:41;6.78;;;2.63;;
63046;SDS011;62025;39.238;9.126;2022-08-30T08:23:07;4.85;;;2.53;;
63046;SDS011;62025;39.238;9.126;2022-08-30T08:25:36;4.18;;;2.53;;
63046;SDS011;62025;39.238;9.126;2022-08-30T08:28:04;8.20;;;2.70;;
63046;SDS011;62025;39.238;9.126;2022-08-30T08:30:32;4.60;;;2.38;;
63046;SDS011;62025;39.238;9.126;2022-08-30T08:33:00;8.73;;;2.65;;
63046;SDS011;62025;39.238;9.126;2022-08-30T08:35:28;4.00;;;2.33;;
63046;SDS011;62025;39.238;9.126;2022-08-30T08:37:54;5.35;;;2.72;;
63046;SDS011;62025;39.238;9.126;2022-08-30T08:40:20;6.95;;;2.75;;
63046;SDS011;62025;39.238;9.126;2022-08-30T08:48:29;4.20;;;2.53;;
63046;SDS011;62025;39.238;9.126;2022-08-30T08:51:07;3.03;;;2.45;;
63046;SDS011;62025;39.238;9.126;2022-08-30T08:54:00;3.40;;;2.47;;
63046;SDS011;62025;39.238;9.126;2022-08-30T08:56:35;5.82;;;2.60;;
63046;SDS011;62025;39.238;9.126;2022-08-30T08:59:02;5.72;;;2.45;;
63046;SDS011;62025;39.238;9.126;2022-08-30T09:01:32;4.20;;;2.35;;
63046;SDS011;62025;39.238;9.126;2022-08-30T09:04:02;5.40;;;2.10;;
63046;SDS011;62025;39.238;9.126;2022-08-30T09:09:33;3.83;;;3.08;;
63046;SDS011;62025;39.238;9.126;2022-08-30T09:12:02;6.35;;;2.60;;
63046;SDS011;62025;39.238;9.126;2022-08-30T09:14:35;3.13;;;2.40;;
63046;SDS011;62025;39.238;9.126;2022-08-30T09:17:09;9.82;;;2.85;;
63046;SDS011;62025;39.238;9.126;2022-08-30T09:22:33;8.25;;;2.80;;
63046;SDS011;62025;39.238;9.126;2022-08-30T09:27:41;4.57;;;2.92;;
63046;SDS011;62025;39.238;9.126;2022-08-30T09:32:52;4.50;;;2.90;;
63046;SDS011;62025;39.238;9.126;2022-08-30T09:35:23;5.18;;;2.60;;
63046;SDS011;62025;39.238;9.126;2022-08-30T09:40:51;4.97;;;2.60;;
63046;SDS011;62025;39.238;9.126;2022-08-30T09:59:45;5.43;;;2.63;;
63046;SDS011;62025;39.238;9.126;2022-08-30T10:02:45;3.55;;;2.42;;
63046;SDS011;62025;39.238;9.126;2022-08-30T10:08:18;4.22;;;2.03;;
63046;SDS011;62025;39.238;9.126;2022-08-30T10:16:57;7.55;;;2.60;;
63046;SDS011;62025;39.238;9.126;2022-08-30T10:19:38;8.73;;;2.58;;
63046;SDS011;62025;39.238;9.126;2022-08-30T10:23:00;8.70;;;2.55;;
63046;SDS011;62025;39.238;9.126;2022-08-30T10:25:40;7.07;;;2.50;;
63046;SDS011;62025;39.238;9.126;2022-08-30T10:31:04;6.15;;;2.70;;
63046;SDS011;62025;39.238;9.126;2022-08-30T10:33:43;5.00;;;2.60;;
63046;SDS011;62025;39.238;9.126;2022-08-30T10:36:25;4.50;;;2.50;;
63046;SDS011;62025;39.238;9.126;2022-08-30T10:39:01;3.95;;;2.40;;
63046;SDS011;62025;39.238;9.126;2022-08-30T10:41:45;6.43;;;2.60;;
63046;SDS011;62025;39.238;9.126;2022-08-30T10:44:24;4.15;;;2.33;;
63046;SDS011;62025;39.238;9.126;2022-08-30T10:47:01;4.32;;;2.38;;
63046;SDS011;62025;39.238;9.126;2022-08-30T10:57:42;6.18;;;2.40;;
63046;SDS011;62025;39.238;9.126;2022-08-30T11:00:10;4.55;;;2.65;;
63046;SDS011;62025;39.238;9.126;2022-08-30T11:08:56;7.15;;;2.72;;
63046;SDS011;62025;39.238;9.126;2022-08-30T11:14:18;6.38;;;2.65;;
63046;SDS011;62025;39.238;9.126;2022-08-30T11:16:49;3.38;;;2.80;;
63046;SDS011;62025;39.238;9.126;2022-08-30T11:19:20;4.70;;;2.60;;
63046;SDS011;62025;39.238;9.126;2022-08-30T11:22:14;4.32;;;2.70;;
63046;SDS011;62025;39.238;9.126;2022-08-30T11:25:09;6.28;;;3.00;;
63046;SDS011;62025;39.238;9.126;2022-08-30T11:28:12;5.18;;;2.65;;
63046;SDS011;62025;39.238;9.126;2022-08-30T11:33:41;6.55;;;2.72;;
63046;SDS011;62025;39.238;9.126;2022-08-30T11:38:59;5.68;;;2.90;;
63046;SDS011;62025;39.238;9.126;2022-08-30T11:41:43;4.15;;;2.70;;
63046;SDS011;62025;39.238;9.126;2022-08-30T11:44:12;6.00;;;2.75;;
63046;SDS011;62025;39.238;9.126;2022-08-30T11:46:45;4.53;;;2.78;;
63046;SDS011;62025;39.238;9.126;2022-08-30T11:54:23;4.90;;;2.80;;
63046;SDS011;62025;39.238;9.126;2022-08-30T11:57:20;7.05;;;2.80;;
63046;SDS011;62025;39.238;9.126;2022-08-30T12:02:42;7.78;;;3.10;;
63046;SDS011;62025;39.238;9.126;2022-08-30T12:10:56;6.63;;;2.90;;
63046;SDS011;62025;39.238;9.126;2022-08-30T12:18:48;6.15;;;3.10;;
63046;SDS011;62025;39.238;9.126;2022-08-30T12:21:26;6.20;;;3.08;;
63046;SDS011;62025;39.238;9.126;2022-08-30T12:24:16;7.15;;;2.70;;
63046;SDS011;62025;39.238;9.126;2022-08-30T12:26:50;7.35;;;2.70;;
63046;SDS011;62025;39.238;9.126;2022-08-30T12:29:28;6.00;;;2.72;;
63046;SDS011;62025;39.238;9.126;2022-08-30T12:32:00;8.88;;;3.13;;
63046;SDS011;62025;39.238;9.126;2022-08-30T12:37:18;6.53;;;2.55;;
63046;SDS011;62025;39.238;9.126;2022-08-30T12:40:08;4.97;;;2.80;;
63046;SDS011;62025;39.238;9.126;2022-08-30T12:42:51;7.30;;;2.60;;
63046;SDS011;62025;39.238;9.126;2022-08-30T12:45:22;5.03;;;2.22;;
63046;SDS011;62025;39.238;9.126;2022-08-30T12:47:57;7.82;;;2.42;;
63046;SDS011;62025;39.238;9.126;2022-08-30T12:50:37;6.88;;;2.40;;
63046;SDS011;62025;39.238;9.126;2022-08-30T12:53:37;4.68;;;2.65;;
63046;SDS011;62025;39.238;9.126;2022-08-30T12:56:07;8.25;;;2.70;;
63046;SDS011;62025;39.238;9.126;2022-08-30T12:58:38;5.90;;;2.25;;
63046;SDS011;62025;39.238;9.126;2022-08-30T13:01:10;4.50;;;2.10;;
63046;SDS011;62025;39.238;9.126;2022-08-30T13:04:18;3.85;;;2.40;;
63046;SDS011;62025;39.238;9.126;2022-08-30T13:06:58;7.63;;;2.25;;
63046;SDS011;62025;39.238;9.126;2022-08-30T13:09:28;4.75;;;2.28;;
63046;SDS011;62025;39.238;9.126;2022-08-30T13:12:08;6.05;;;2.33;;
63046;SDS011;62025;39.238;9.126;2022-08-30T13:14:47;5.35;;;2.42;;
63046;SDS011;62025;39.238;9.126;2022-08-30T13:20:03;6.70;;;2.83;;
63046;SDS011;62025;39.238;9.126;2022-08-30T13:22:33;5.03;;;2.42;;
63046;SDS011;62025;39.238;9.126;2022-08-30T13:25:03;4.57;;;2.60;;
63046;SDS011;62025;39.238;9.126;2022-08-30T13:27:31;6.15;;;2.58;;
63046;SDS011;62025;39.238;9.126;2022-08-30T13:30:05;6.05;;;2.47;;
63046;SDS011;62025;39.238;9.126;2022-08-30T13:32:40;8.38;;;2.42;;
63046;SDS011;62025;39.238;9.126;2022-08-30T13:35:08;8.75;;;2.38;;
63046;SDS011;62025;39.238;9.126;2022-08-30T13:37:35;5.95;;;2.35;;
63046;SDS011;62025;39.238;9.126;2022-08-30T13:40:06;6.63;;;2.50;;
63046;SDS011;62025;39.238;9.126;2022-08-30T13:42:35;4.43;;;2.50;;
63046;SDS011;62025;39.238;9.126;2022-08-30T13:45:01;5.60;;;2.67;;
63046;SDS011;62025;39.238;9.126;2022-08-30T13:47:27;8.95;;;3.00;;
63046;SDS011;62025;39.238;9.126;2022-08-30T13:49:54;6.32;;;2.40;;
63046;SDS011;62025;39.238;9.126;2022-08-30T13:52:20;7.97;;;2.33;;
63046;SDS011;62025;39.238;9.126;2022-08-30T13:54:52;4.28;;;2.42;;
63046;SDS011;62025;39.238;9.126;2022-08-30T13:57:22;4.03;;;2.38;;
63046;SDS011;62025;39.238;9.126;2022-08-30T13:59:52;3.78;;;2.40;;
63046;SDS011;62025;39.238;9.126;2022-08-30T14:02:18;6.53;;;3.00;;
63046;SDS011;62025;39.238;9.126;2022-08-30T14:04:44;7.10;;;2.85;;
63046;SDS011;62025;39.238;9.126;2022-08-30T14:07:10;4.97;;;2.60;;
63046;SDS011;62025;39.238;9.126;2022-08-30T14:09:36;6.60;;;2.40;;
63046;SDS011;62025;39.238;9.126;2022-08-30T14:12:03;4.57;;;2.50;;
63046;SDS011;62025;39.238;9.126;2022-08-30T14:14:30;3.67;;;2.45;;
63046;SDS011;62025;39.238;9.126;2022-08-30T14:16:56;5.47;;;2.30;;
63046;SDS011;62025;39.238;9.126;2022-08-30T14:19:22;4.50;;;2.17;;
63046;SDS011;62025;39.238;9.126;2022-08-30T14:21:48;5.85;;;2.50;;
63046;SDS011;62025;39.238;9.126;2022-08-30T14:24:15;4.43;;;2.38;;
63046;SDS011;62025;39.238;9.126;2022-08-30T14:26:44;4.93;;;2.35;;
63046;SDS011;62025;39.238;9.126;2022-08-30T14:29:15;7.07;;;2.58;;
63046;SDS011;62025;39.238;9.126;2022-08-30T14:31:45;7.03;;;2.15;;
63046;SDS011;62025;39.238;9.126;2022-08-30T14:34:13;5.13;;;2.35;;
63046;SDS011;62025;39.238;9.126;2022-08-30T14:36:41;4.75;;;2.33;;
63046;SDS011;62025;39.238;9.126;2022-08-30T14:39:11;6.18;;;2.70;;
63046;SDS011;62025;39.238;9.126;2022-08-30T14:41:43;6.60;;;2.95;;
63046;SDS011;62025;39.238;9.126;2022-08-30T14:44:20;5.55;;;2.60;;
63046;SDS011;62025;39.238;9.126;2022-08-30T14:46:47;7.23;;;2.87;;
63046;SDS011;62025;39.238;9.126;2022-08-30T14:49:14;7.35;;;2.75;;
63046;SDS011;62025;39.238;9.126;2022-08-30T14:51:41;6.78;;;2.90;;
63046;SDS011;62025;39.238;9.126;2022-08-30T14:54:10;4.70;;;2.50;;
63046;SDS011;62025;39.238;9.126;2022-08-30T14:56:38;7.05;;;2.60;;
63046;SDS011;62025;39.238;9.126;2022-08-30T14:59:05;3.47;;;2.60;;
63046;SDS011;62025;39.238;9.126;2022-08-30T15:01:32;6.90;;;2.50;;
63046;SDS011;62025;39.238;9.126;2022-08-30T15:03:59;9.30;;;2.70;;
63046;SDS011;62025;39.238;9.126;2022-08-30T15:06:26;5.30;;;2.58;;
63046;SDS011;62025;39.238;9.126;2022-08-30T15:08:53;7.20;;;3.00;;
63046;SDS011;62025;39.238;9.126;2022-08-30T15:11:21;4.72;;;2.50;;
63046;SDS011;62025;39.238;9.126;2022-08-30T15:13:50;4.60;;;2.40;;
63046;SDS011;62025;39.238;9.126;2022-08-30T15:16:28;4.82;;;2.80;;
63046;SDS011;62025;39.238;9.126;2022-08-30T15:18:57;7.63;;;2.72;;
63046;SDS011;62025;39.238;9.126;2022-08-30T15:23:59;9.13;;;2.75;;
63046;SDS011;62025;39.238;9.126;2022-08-30T15:26:26;5.50;;;2.42;;
63046;SDS011;62025;39.238;9.126;2022-08-30T15:28:53;5.53;;;2.53;;
63046;SDS011;62025;39.238;9.126;2022-08-30T15:31:20;7.03;;;2.50;;
63046;SDS011;62025;39.238;9.126;2022-08-30T15:33:56;6.40;;;2.75;;
63046;SDS011;62025;39.238;9.126;2022-08-30T15:36:23;4.05;;;2.25;;
63046;SDS011;62025;39.238;9.126;2022-08-30T15:38:51;5.65;;;2.35;;
63046;SDS011;62025;39.238;9.126;2022-08-30T15:41:21;7.53;;;2.70;;
63046;SDS011;62025;39.238;9.126;2022-08-30T15:43:48;4.85;;;2.47;;
63046;SDS011;62025;39.238;9.126;2022-08-30T15:46:21;5.63;;;2.75;;
63046;SDS011;62025;39.238;9.126;2022-08-30T15:48:52;4.93;;;2.30;;
63046;SDS011;62025;39.238;9.126;2022-08-30T15:51:21;3.60;;;2.45;;
63046;SDS011;62025;39.238;9.126;2022-08-30T15:53:48;3.60;;;2.35;;
63046;SDS011;62025;39.238;9.126;2022-08-30T15:56:17;6.10;;;2.17;;
63046;SDS011;62025;39.238;9.126;2022-08-30T15:58:44;3.15;;;2.03;;
63046;SDS011;62025;39.238;9.126;2022-08-30T16:01:10;4.93;;;2.05;;
63046;SDS011;62025;39.238;9.126;2022-08-30T16:03:37;4.78;;;2.20;;
63046;SDS011;62025;39.238;9.126;2022-08-30T16:06:10;8.43;;;2.28;;
63046;SDS011;62025;39.238;9.126;2022-08-30T16:08:42;3.63;;;1.90;;
63046;SDS011;62025;39.238;9.126;2022-08-30T16:11:10;3.40;;;1.90;;
63046;SDS011;62025;39.238;9.126;2022-08-30T16:13:39;6.85;;;2.00;;
63046;SDS011;62025;39.238;9.126;2022-08-30T16:16:05;4.95;;;1.90;;
63046;SDS011;62025;39.238;9.126;2022-08-30T16:18:34;3.80;;;1.85;;
63046;SDS011;62025;39.238;9.126;2022-08-30T16:21:02;3.95;;;2.08;;
63046;SDS011;62025;39.238;9.126;2022-08-30T16:23:38;4.18;;;1.88;;
63046;SDS011;62025;39.238;9.126;2022-08-30T16:26:07;3.55;;;2.05;;
63046;SDS011;62025;39.238;9.126;2022-08-30T16:28:34;5.00;;;2.22;;
63046;SDS011;62025;39.238;9.126;2022-08-30T16:31:02;4.72;;;1.95;;
63046;SDS011;62025;39.238;9.126;2022-08-30T16:33:29;5.30;;;1.70;;
63046;SDS011;62025;39.238;9.126;2022-08-30T16:35:56;5.85;;;2.10;;
63046;SDS011;62025;39.238;9.126;2022-08-30T16:38:23;4.47;;;2.13;;
63046;SDS011;62025;39.238;9.126;2022-08-30T16:40:51;7.97;;;2.00;;
63046;SDS011;62025;39.238;9.126;2022-08-30T16:43:18;7.35;;;2.28;;